Latest Weather Observations for Katanning RS

IDW60801

Issued at 6:03 pm WST Friday 24 February 2017 (issued every 30 minutes, with the page automatically refreshed every 10 minutes)

About weather observations | Map of weather stations | Latest weather observations for WA | Other Formats
Station Details ID: 010916 Name: KATANNING Lat: -33.69 Lon: 117.61 Height: 320.0 m
Data from the previous 72 hours. | See also: Recent months at Katanning RS
Date/Time
WST
Temp
°C
App
Temp
°C
Dew
Point
°C
Rel
Hum
%
Delta-T
°C
Wind Press
QNH
hPa
Press
MSL
hPa
Rain since
9am
mm
Dir  Spd
km/h
Gust
km/h
Spd
kts
Gust
kts
24/06:00pm 30.0 27.6 7.2 24 12.5 NE 9 13 5 7 1020.1 1018.7 0.0
24/05:30pm 30.8 27.9 6.6 22 13.1 NNE 11 15 6 8 1020.1 1018.7 0.0
24/05:00pm 31.3 28.4 6.4 21 13.5 NNE 11 17 6 9 1020.2 1018.8 0.0
24/04:30pm 31.5 28.4 7.2 22 13.4 NNE 13 22 7 12 1020.3 1018.9 0.0
24/04:00pm 31.6 28.1 7.3 22 13.4 NE 15 26 8 14 1020.5 1019.1 0.0
24/03:30pm 31.7 29.6 6.7 21 13.7 ENE 7 17 4 9 1020.9 1019.6 0.0
24/03:00pm 31.5 29.2 5.8 20 13.8 N 7 17 4 9 1021.2 1019.9 0.0
24/02:30pm 31.4 27.4 6.5 21 13.6 NNE 17 26 9 14 1021.5 1020.2 0.0
24/02:00pm 30.9 27.8 7.4 23 12.9 NNE 13 22 7 12 1021.9 1020.6 0.0
24/01:30pm 30.1 26.9 8.5 26 12.1 NNE 15 24 8 13 1022.3 1020.9 0.0
24/01:00pm 29.5 25.7 9.1 28 11.5 NE 19 24 10 13 1022.7 1021.3 0.0
24/12:30pm 28.7 25.3 10.4 32 10.5 NNE 19 24 10 13 1023.1 1021.7 0.0
24/12:00pm 28.4 25.0 10.6 33 10.2 NNE 19 26 10 14 1023.5 1022.2 0.0
24/11:30am 27.3 23.8 10.1 34 9.7 NNE 19 28 10 15 1023.9 1022.6 0.0
24/11:00am 26.6 23.2 10.7 37 9.0 NE 19 26 10 14 1024.3 1023.0 0.0
24/10:30am 25.6 22.1 10.2 38 8.7 NE 19 26 10 14 1024.9 1023.6 0.0
24/10:00am 24.3 21.4 10.9 43 7.6 ENE 17 26 9 14 1025.1 1023.8 0.0
24/09:30am 22.8 20.5 11.8 50 6.3 E 15 24 8 13 1025.8 1024.4 0.0
24/09:00am 20.9 17.9 11.8 56 5.1 E 19 26 10 14 1025.7 1024.3 0.0
24/08:30am 19.4 16.5 12.2 63 4.1 ENE 19 26 10 14 1025.7 1024.3 0.0
24/08:00am 18.1 16.4 12.3 69 3.2 E 13 19 7 10 1025.9 1024.5 0.0
24/07:30am 16.9 14.4 12.4 75 2.5 E 17 22 9 12 1026.1 1024.7 0.0
24/07:00am 16.1 14.5 12.8 81 1.8 E 13 20 7 11 1026.1 1024.7 0.0
24/06:30am 15.3 14.1 12.8 85 1.4 E 11 17 6 9 1026.0 1024.6 0.0
24/06:00am 14.7 13.4 12.4 86 1.3 E 11 19 6 10 1025.6 1024.2 0.0
24/05:30am 14.7 13.4 12.4 86 1.3 E 11 17 6 9 1025.3 1024.0 0.0
24/05:00am 14.9 13.2 12.4 85 1.4 E 13 17 7 9 1025.3 1024.0 0.0
24/04:30am 15.2 12.8 12.7 85 1.4 E 17 22 9 12 1025.2 1023.9 0.0
24/04:00am 15.4 13.1 12.9 85 1.4 E 17 24 9 13 1025.1 1023.8 0.0
24/03:30am 15.1 13.9 12.8 86 1.3 E 11 17 6 9 1025.0 1023.7 0.0
24/03:00am 15.1 13.1 12.6 85 1.4 ESE 15 20 8 11 1025.0 1023.7 0.0
24/02:30am 15.2 13.2 12.7 85 1.4 ESE 15 22 8 12 1025.1 1023.8 0.0
24/02:00am 15.1 12.7 12.6 85 1.4 ESE 17 24 9 13 1025.1 1023.8 0.0
24/01:30am 14.9 13.2 12.6 86 1.3 ESE 13 19 7 10 1025.1 1023.8 0.0
24/01:00am 14.7 13.3 12.2 85 1.4 ESE 11 17 6 9 1025.3 1024.0 0.0
24/12:30am 14.8 13.4 12.1 84 1.5 ESE 11 17 6 9 1025.6 1024.2 0.0
24/12:00am 15.1 13.7 12.1 82 1.6 ESE 11 15 6 8 1025.6 1024.2 0.0
 
Date/Time
WST
Temp
°C
App
Temp
°C
Dew
Point
°C
Rel
Hum
%
Delta-T
°C
Wind Press
QNH
hPa
Press
MSL
hPa
Rain since
9am
mm
Dir  Spd
km/h
Gust
km/h
Spd
kts
Gust
kts
23/11:30pm 15.4 12.9 12.3 82 1.7 ESE 17 24 9 13 1025.2 1023.9 0.0
23/11:00pm 15.6 13.9 12.4 81 1.8 ESE 13 20 7 11 1025.2 1023.9 0.0
23/10:30pm 16.0 14.0 12.6 80 1.9 SE 15 20 8 11 1025.1 1023.8 0.0
23/10:00pm 16.6 14.6 12.8 78 2.1 SE 15 24 8 13 1025.0 1023.7 0.0
23/09:30pm 17.9 15.2 13.0 73 2.8 ESE 19 30 10 16 1024.9 1023.6 0.0
23/09:00pm 19.1 16.5 13.3 69 3.3 ESE 19 28 10 15 1024.5 1023.2 0.0
23/08:30pm 20.4 18.6 13.4 64 4.1 ESE 15 22 8 12 1024.1 1022.8 0.0
23/08:00pm 21.4 19.1 13.1 59 4.8 ESE 17 24 9 13 1023.6 1022.3 0.0
23/07:30pm 22.2 20.7 9.0 43 7.2 ESE 7 9 4 5 1023.1 1021.7 0.0
23/07:00pm 23.6 22.3 7.7 36 8.4 ESE 4 6 2 3 1022.6 1021.2 0.0
23/06:30pm 25.1 23.2 7.7 33 9.4 E 7 11 4 6 1022.4 1021.0 0.0
23/06:00pm 26.1 23.9 7.7 31 9.9 ENE 9 13 5 7 1022.1 1020.8 0.0
23/05:30pm 26.8 24.5 7.3 29 10.5 E 9 15 5 8 1022.0 1020.7 0.0
23/05:00pm 26.8 24.5 5.7 26 11.0 E 7 13 4 7 1021.9 1020.6 0.0
23/04:30pm 26.8 24.1 5.7 26 11.1 E 9 19 5 10 1021.8 1020.5 0.0
23/04:00pm 27.2 24.9 7.6 29 10.6 E 9 19 5 10 1021.8 1020.5 0.0
23/03:30pm 26.9 25.0 7.4 29 10.5 E 7 13 4 7 1021.7 1020.4 0.0
23/03:00pm 26.4 24.2 6.4 28 10.6 NNE 7 15 4 8 1021.8 1020.5 0.0
23/02:30pm 26.1 24.9 8.1 32 9.8 ENE 4 11 2 6 1022.0 1020.7 0.0
23/02:00pm 25.8 23.7 5.9 28 10.4 NNE 6 15 3 8 1022.5 1021.1 0.0
23/01:30pm 25.7 24.1 8.2 33 9.5 ENE 6 13 3 7 1022.7 1021.3 0.0
23/01:00pm 24.4 22.9 9.2 38 8.3 NNE 7 13 4 7 1023.1 1021.7 0.0
23/12:30pm 24.0 22.7 9.9 41 7.8 NNE 7 13 4 7 1023.3 1021.9 0.0
23/12:00pm 23.8 23.3 10.8 44 7.3 NE 4 11 2 6 1023.4 1022.0 0.0
23/11:30am 22.1 21.2 10.6 48 6.4 ENE 6 11 3 6 1023.6 1022.3 0.0
23/11:00am 22.4 21.5 11.5 50 6.2 ENE 7 11 4 6 1023.9 1022.6 0.0
23/10:30am 21.3 20.8 12.2 56 5.2 ENE 6 9 3 5 1024.3 1023.0 0.0
23/10:00am 20.1 19.5 11.6 58 4.8 E 6 13 3 7 1024.4 1023.1 0.0
23/09:30am 19.2 18.5 12.0 63 4.1 ESE 7 15 4 8 1024.5 1023.2 0.0
23/09:00am 18.5 17.5 12.3 67 3.5 ENE 9 15 5 8 1024.6 1023.3 0.0
23/08:30am 17.2 16.0 11.5 69 3.1 ENE 9 15 5 8 1024.3 1023.0 0.0
23/08:00am 16.7 16.2 12.0 74 2.6 NE 6 11 3 6 1024.2 1022.9 0.0
23/07:30am 15.7 15.0 12.1 79 2.0 NE 7 11 4 6 1024.1 1022.8 0.0
23/07:00am 15.3 14.2 12.1 81 1.8 NE 9 15 5 8 1023.8 1022.5 0.0
23/06:30am 14.6 14.6 12.3 86 1.3 ENE 4 6 2 3 1023.7 1022.4 0.0
23/06:00am 14.4 14.3 12.1 86 1.3 ENE 4 4 2 2 1023.4 1022.0 0.0
23/05:30am 14.4 14.3 12.1 86 1.3 NE 4 6 2 3 1023.1 1021.7 0.0
23/05:00am 14.7 14.4 12.7 88 1.1 ENE 6 6 3 3 1022.8 1021.4 0.0
23/04:30am 14.7 15.2 12.9 89 1.0 ENE 2 4 1 2 1022.7 1021.3 0.0
23/04:00am 14.4 15.2 12.6 89 1.0 CALM 0 0 0 0 1022.6 1021.2 0.0
23/03:30am 14.3 15.1 12.5 89 1.0 CALM 0 2 0 1 1022.5 1021.1 0.0
23/03:00am 14.1 13.6 12.5 90 0.9 ENE 7 11 4 6 1022.3 1020.9 0.0
23/02:30am 14.0 13.0 12.2 89 1.0 ENE 9 15 5 8 1022.0 1020.7 0.0
23/02:00am 14.1 13.1 12.3 89 1.0 ENE 9 15 5 8 1021.8 1020.5 0.0
23/01:30am 14.1 13.0 12.1 88 1.1 E 9 13 5 7 1021.7 1020.4 0.0
23/01:00am 13.8 13.2 11.7 87 1.1 ENE 6 9 3 5 1021.5 1020.2 0.0
23/12:30am 13.6 13.3 11.3 86 1.2 SE 4 6 2 3 1021.6 1020.3 0.0
23/12:00am 14.0 13.7 11.5 85 1.4 ESE 4 6 2 3 1021.6 1020.3 0.0
 
Date/Time
WST
Temp
°C
App
Temp
°C
Dew
Point
°C
Rel
Hum
%
Delta-T
°C
Wind Press
QNH
hPa
Press
MSL
hPa
Rain since
9am
mm
Dir  Spd
km/h
Gust
km/h
Spd
kts
Gust
kts
22/11:30pm 14.3 13.6 11.5 83 1.5 E 6 6 3 3 1021.5 1020.2 0.0
22/11:00pm 15.0 14.3 12.0 82 1.6 ESE 7 9 4 5 1021.5 1020.2 0.0
22/10:30pm 15.6 14.5 12.0 79 2.0 ESE 9 15 5 8 1021.8 1020.5 0.0
22/10:00pm 16.3 14.6 11.2 72 2.8 SSE 11 19 6 10 1022.1 1020.8 0.0
22/09:30pm 16.7 14.7 10.3 66 3.4 SSW 11 13 6 7 1022.0 1020.7 0.0
22/09:00pm 16.4 15.1 10.0 66 3.4 SW 7 9 4 5 1021.9 1020.6 0.0
22/08:30pm 17.0 15.7 9.9 63 3.8 SW 7 9 4 5 1021.7 1020.4 0.0
22/08:00pm 17.5 16.2 9.9 61 4.1 SW 7 9 4 5 1021.4 1020.1 0.0
22/07:30pm 18.6 17.3 9.9 57 4.7 SW 7 9 4 5 1021.1 1019.8 0.0
22/07:00pm 19.5 18.3 9.7 53 5.3 SW 6 7 3 4 1020.7 1019.4 0.0
22/06:30pm 21.1 19.2 9.0 46 6.5 SW 9 13 5 7 1020.2 1018.8 0.0
22/06:00pm 21.9 19.6 9.1 44 6.9 SW 11 19 6 10 1019.9 1018.5 0.0
22/05:30pm 22.3 19.7 9.5 44 7.0 WSW 13 19 7 10 1019.8 1018.4 0.0
22/05:00pm 22.5 20.7 9.3 43 7.2 SW 9 19 5 10 1019.8 1018.4 0.0
22/04:30pm 22.1 19.4 8.9 43 7.1 WSW 13 24 7 13 1019.7 1018.3 0.0
22/04:00pm 21.7 19.9 9.3 45 6.7 WSW 9 17 5 9 1019.8 1018.4 0.0
22/03:30pm 21.5 17.7 9.1 45 6.7 W 19 28 10 15 1020.0 1018.6 0.0
22/03:00pm 21.3 18.5 9.9 48 6.2 SW 15 22 8 12 1020.2 1018.8 0.0
22/02:30pm 21.3 18.0 9.5 47 6.4 SW 17 26 9 14 1020.2 1018.8 0.0
22/02:00pm 20.9 18.0 9.8 49 6.0 WSW 15 24 8 13 1020.4 1019.0 0.0
22/01:30pm 20.0 17.6 9.9 52 5.5 SW 13 26 7 14 1020.6 1019.2 0.0
22/01:00pm 19.3 16.8 9.8 54 5.1 SW 13 22 7 12 1020.9 1019.6 0.0
22/12:30pm 18.2 15.7 9.8 58 4.5 W 13 20 7 11 1021.0 1019.7 0.0
22/12:00pm 17.6 15.8 9.5 59 4.3 W 9 15 5 8 1021.1 1019.8 0.0
22/11:30am 16.7 14.0 9.1 61 4.0 WSW 13 20 7 11 1021.3 1020.0 0.0
22/11:00am 16.4 13.7 8.9 61 3.9 W 13 20 7 11 1021.2 1019.9 0.0
22/10:30am 15.9 12.9 9.1 64 3.6 W 15 20 8 11 1021.2 1019.9 0.0
22/10:00am 15.9 14.0 9.1 64 3.5 WSW 9 17 5 9 1021.2 1019.9 0.0
22/09:30am 15.2 12.9 8.9 66 3.3 WSW 11 19 6 10 1021.3 1020.0 0.0
22/09:00am 14.8 11.7 9.0 68 3.0 SW 15 22 8 12 1021.1 1019.8 0.2
22/08:30am 14.8 12.8 8.7 67 3.1 WSW 9 13 5 7 1020.9 1019.6 0.2
22/08:00am 13.1 11.4 8.2 72 2.5 W 7 11 4 6 1020.9 1019.6 0.2
22/07:30am 12.0 10.1 7.7 75 2.1 WSW 7 13 4 7 1020.7 1019.4 0.2
22/07:00am 11.2 8.9 7.3 77 1.9 WSW 9 13 5 7 1020.3 1018.9 0.2
22/06:30am 9.9 7.5 7.2 83 1.3 W 9 11 5 6 1020.1 1018.7 0.2
22/06:00am 9.1 6.5 6.0 81 1.4 W 9 13 5 7 1019.7 1018.3 0.2
22/05:30am 9.4 6.7 5.8 78 1.7 W 9 11 5 6 1019.5 1018.1 0.2
22/05:00am 10.9 8.5 6.8 76 2.0 WSW 9 13 5 7 1019.4 1018.0 0.2
22/04:30am 10.5 7.6 6.6 77 1.9 WSW 11 17 6 9 1019.0 1017.6 0.2
22/04:00am 10.1 7.6 6.6 79 1.7 WSW 9 15 5 8 1018.5 1017.2 0.2
22/03:30am 9.7 6.7 6.2 79 1.6 W 11 15 6 8 1018.0 1016.7 0.2
22/03:00am 8.9 6.2 5.8 81 1.4 W 9 11 5 6 1017.8 1016.4 0.2
22/02:30am 9.3 6.6 5.7 78 1.7 WSW 9 11 5 6 1017.8 1016.4 0.2
22/02:00am 9.4 6.7 5.6 77 1.8 WSW 9 11 5 6 1017.8 1016.4 0.2
22/01:30am 9.6 6.9 5.6 76 1.9 WSW 9 13 5 7 1018.0 1016.7 0.2
22/01:00am 9.7 7.0 5.5 75 1.9 SW 9 11 5 6 1018.1 1016.8 0.2
22/12:30am 10.1 7.4 5.5 73 2.1 WSW 9 11 5 6 1018.2 1016.9 0.2
22/12:00am 10.1 7.3 5.3 72 2.2 WSW 9 11 5 6 1018.2 1016.9 0.2
 
Date/Time
WST
Temp
°C
App
Temp
°C
Dew
Point
°C
Rel
Hum
%
Delta-T
°C
Wind Press
QNH
hPa
Press
MSL
hPa
Rain since
9am
mm
Dir  Spd
km/h
Gust
km/h
Spd
kts
Gust
kts
21/11:30pm 10.4 7.3 5.4 71 2.3 SW 11 13 6 7 1018.3 1017.0 0.2
21/11:00pm 10.3 7.5 5.3 71 2.3 SW 9 13 5 7 1018.3 1017.0 0.2
21/10:30pm 10.9 8.1 5.2 68 2.7 SW 9 11 5 6 1018.4 1017.1 0.2
21/10:00pm 11.4 8.6 5.1 65 2.9 SW 9 13 5 7 1018.3 1017.0 0.2
21/09:30pm 12.0 8.8 5.0 62 3.3 SW 11 15 6 8 1018.4 1017.1 0.2
21/09:00pm 12.3 9.0 4.8 60 3.5 SW 11 15 6 8 1018.3 1017.0 0.2
21/08:30pm 12.7 9.0 4.7 58 3.7 SW 13 17 7 9 1018.1 1016.8 0.2
21/08:00pm 13.3 9.6 4.2 54 4.2 SW 13 17 7 9 1017.8 1016.4 0.2
21/07:30pm 14.0 9.0 3.8 50 4.7 WSW 19 26 10 14 1017.3 1015.9 0.2
21/07:00pm 14.7 9.3 4.4 50 4.8 SW 22 30 12 16 1016.9 1015.5 0.2
21/06:30pm 15.5 10.4 3.9 46 5.4 SW 20 32 11 17 1016.3 1014.9 0.2

Other Formats:

Comma delimited format used in spreadsheet applications
http://www.bom.gov.au/fwo/IDW60801/IDW60801.94641.axf

JavaScript Object Notation format (JSON) in row-major order
http://www.bom.gov.au/fwo/IDW60801/IDW60801.94641.json